Weather at Welshpool Airport

Public forecast

Using degrees Celsius for public forecast. Weather courtesy of forecast.io.

Closest aviation weather report (METAR) to Welshpool Airport

Closest report is Melbourne International Airport, 96.9 nm (179.5 km) NW.

2024/07/17 12:00 (retrieved 39 minutes ago)

YMML 171200Z 25010KT 9999 FEW030 BKN043 09/06 Q1015 RF000/0010 SHOWER TO S

Closest aviation forecast (TAF) to Welshpool Airport

Closest forecast is Melbourne International Airport, 96.9 nm (179.5 km) NW.

2024/07/17 12:54 (retrieved 0 seconds ago)

TAF YMML 171104Z 1712/1818 24010KT 9999 SCT030 BKN040 FM171800 23010KT 9999 -SHRA SCT025 BKN035 FM180000 23012KT 9999 NSW BKN040 FM180800 34007KT 9999 SCT045